Aviation Digital Data Service (ADDS)

Output produced by TAFs form (1629 UTC 23 November 2017)
found at http://www.aviationweather.gov/adds/tafs/
 
METAR text: ZMUB 231630Z 00000MPS 9999 SCT100 M20/M22 Q1016 NOSIG RMK QFE655.0 78 NT
Conditions at: ZMUB (ULAN-BATOR , MG) observed 1630 UTC 23 November 2017
Temperature: -20.0°C (-4°F)
Dewpoint: -22.0°C (-8°F) [RH = 84%]
Pressure (altimeter): 30.00 inches Hg (1016.0 mb)
Winds: calm
Visibility: 6 or more miles (10+ km)
Ceiling: at least 12,000 feet AGL
Clouds: scattered clouds at 10000 feet AGL
Weather: no significant weather observed at this time

Forecast for: ZMUB (ULAN-BATOR , MG)
Text: TAF ZMUB 231040Z 2312/2418 VRB02MPS 9999 SCT033 SCT100 TNM25/2322Z TXM10/2406Z
Forecast period: 1200 UTC 23 November 2017 to 1800 UTC 24 November 2017
Forecast type: FROM: standard forecast or significant change
Winds: variable direction winds at 5 MPH (4 knots; 2.1 m/s)
Visibility: 6 or more miles (10+ km)
Clouds: scattered clouds at 3300 feet AGL
scattered clouds at 10000 feet AGL
Weather: no significant weather forecast for this period
Text: TEMPO 2317/2403 6000 -SN SCT030 SCT080
Forecast period: 1700 UTC 23 November 2017 to 0300 UTC 24 November 2017
Forecast type: TEMPORARY: The following changes expected for less than half the time period
Visibility: 4 miles (6 km)
Clouds: scattered clouds at 3000 feet AGL
scattered clouds at 8000 feet AGL
Weather: -SN  (light snow)